Terminal Aerodrome Forecast
Issued by NWS Denver/Boulder, CO

Home | Current Version | Previous Version | Text Only | Print | Product List | Glossary On
Versions: 1 2 3 4 5 6 7 8 9 10 11 12 13 14 15 16 17 18 19 20 21 22 23 24 25 26 27 28 29 30 31
000
FTUS45 KBOU 232339 AAA
TAFDEN
TAF AMD
KDEN 232339Z 2400/2506 25010KT P6SM VCTS SCT090CB BKN130
      TEMPO 2400/2402 VRB20G35KT
     FM240200 18010KT P6SM FEW090 SCT130 BKN200
     FM240700 22010KT P6SM SCT130 BKN220
     FM241600 VRB06KT P6SM FEW090
     FM241900 12007KT P6SM SCT090
     FM242200 10008KT P6SM SCT090 BKN130 PROB30 2422/2503 VRB20G30KT
      -TSRA BKN090CB
     FM250300 18010KT P6SM FEW090 BKN140=

USA.gov is the U.S. government's official web portal to all federal, state and local government web resources and services.